createdAt,value
2023-02-08T00:00:41.437Z,8.30
2023-02-08T00:06:01.139Z,8.00
2023-02-08T00:11:06.208Z,7.80
2023-02-08T00:16:12.543Z,7.20
2023-02-08T00:21:18.792Z,8.10
2023-02-08T00:26:22.808Z,7.10
2023-02-08T00:31:27.135Z,8.30
2023-02-08T00:36:31.390Z,7.70
2023-02-08T00:41:35.508Z,7.90
2023-02-08T00:46:39.571Z,7.50
2023-02-08T00:51:43.673Z,8.10
2023-02-08T00:56:48.791Z,7.10
2023-02-08T01:01:52.671Z,8.20
2023-02-08T01:06:56.715Z,7.80
2023-02-08T01:12:00.835Z,8.20
2023-02-08T01:17:04.754Z,8.10
2023-02-08T01:22:09.236Z,7.50
2023-02-08T01:27:13.437Z,7.20
2023-02-08T01:32:17.297Z,8.50
2023-02-08T01:37:21.522Z,8.00
2023-02-08T01:42:25.634Z,6.90
2023-02-08T01:47:30.582Z,7.00
2023-02-08T01:52:34.933Z,6.90
2023-02-08T01:57:39.173Z,7.90
2023-02-08T02:02:46.097Z,7.30
2023-02-08T02:07:52.560Z,7.80
2023-02-08T02:13:02.634Z,7.10
2023-02-08T02:18:08.955Z,7.00
2023-02-08T02:23:41.402Z,6.60
2023-02-08T02:28:53.192Z,8.10
2023-02-08T02:34:20.968Z,7.00
2023-02-08T02:39:48.760Z,6.50
2023-02-08T02:45:05.101Z,6.40
2023-02-08T02:50:20.974Z,6.00
2023-02-08T02:55:27.029Z,6.40
2023-02-08T03:00:33.142Z,6.70
2023-02-08T03:05:37.251Z,6.60
2023-02-08T03:11:01.642Z,6.40
2023-02-08T03:16:20.361Z,6.30
2023-02-08T03:21:37.246Z,5.90
2023-02-08T03:26:54.224Z,5.70
2023-02-08T03:32:07.122Z,5.70
2023-02-08T03:37:16.712Z,6.10
2023-02-08T03:42:25.601Z,6.70
2023-02-08T03:47:34.371Z,5.90
2023-02-08T03:52:39.435Z,5.90
2023-02-08T03:57:52.248Z,5.60
2023-02-08T04:03:02.330Z,6.00
2023-02-08T04:08:06.442Z,5.30
2023-02-08T04:13:10.488Z,5.70
2023-02-08T04:18:14.612Z,5.70
2023-02-08T04:23:18.648Z,5.60
2023-02-08T04:28:23.029Z,5.80
2023-02-08T04:33:27.029Z,5.40
2023-02-08T04:38:31.675Z,5.30
2023-02-08T04:43:36.027Z,5.60
2023-02-08T04:48:40.137Z,4.90
2023-02-08T04:53:44.068Z,5.80
2023-02-08T04:58:48.939Z,5.20
2023-02-08T05:03:52.895Z,5.10
2023-02-08T05:08:57.006Z,5.20
2023-02-08T05:14:01.234Z,4.80
2023-02-08T05:19:05.878Z,5.20
2023-02-08T05:24:12.916Z,4.80
2023-02-08T05:29:17.018Z,4.90
2023-02-08T05:34:21.172Z,4.80
2023-02-08T05:39:25.385Z,5.10
2023-02-08T05:44:29.905Z,4.40
2023-02-08T05:49:34.770Z,5.40
2023-02-08T05:54:38.907Z,4.60
2023-02-08T05:59:43.033Z,5.50
2023-02-08T06:04:47.199Z,5.10
2023-02-08T06:09:51.410Z,5.00
2023-02-08T06:14:55.532Z,5.20
2023-02-08T06:19:59.686Z,5.60
2023-02-08T06:25:04.229Z,5.80
2023-02-08T06:30:11.368Z,5.70
2023-02-08T06:35:15.673Z,6.30
2023-02-08T06:40:19.906Z,6.60
2023-02-08T06:45:23.943Z,6.80
2023-02-08T06:50:28.480Z,7.50
2023-02-08T06:55:32.625Z,9.40
2023-02-08T07:00:36.753Z,10.60
2023-02-08T07:05:49.450Z,10.60
2023-02-08T07:10:59.756Z,10.10
2023-02-08T07:16:05.499Z,12.80
2023-02-08T07:21:12.202Z,10.30
2023-02-08T07:26:16.359Z,10.90
2023-02-08T07:31:20.499Z,11.70
2023-02-08T07:36:24.933Z,11.40
2023-02-08T07:41:29.180Z,12.70
2023-02-08T07:46:33.414Z,13.00
2023-02-08T07:51:37.542Z,11.30
2023-02-08T07:56:42.091Z,12.50
2023-02-08T08:01:46.510Z,12.60
2023-02-08T08:06:52.310Z,12.40
2023-02-08T08:11:56.239Z,12.90
2023-02-08T08:17:00.459Z,14.00
2023-02-08T08:22:04.603Z,12.90
2023-02-08T08:27:08.532Z,13.60
2023-02-08T08:32:12.671Z,13.60
2023-02-08T08:37:16.706Z,13.20
2023-02-08T08:42:21.355Z,12.80
2023-02-08T08:47:25.599Z,12.80
2023-02-08T08:52:30.041Z,13.10
2023-02-08T08:57:33.949Z,13.90
2023-02-08T09:02:37.888Z,13.00
2023-02-08T09:07:42.124Z,13.20
2023-02-08T09:12:46.209Z,14.10
2023-02-08T09:17:50.487Z,12.80
2023-02-08T09:22:54.934Z,12.90
2023-02-08T09:27:59.411Z,13.30
2023-02-08T09:33:03.505Z,12.50
2023-02-08T09:38:07.752Z,12.80
2023-02-08T09:43:27.135Z,12.40
2023-02-08T09:48:36.832Z,12.10
2023-02-08T09:53:47.066Z,12.10
2023-02-08T09:58:53.725Z,12.90
2023-02-08T10:04:03.266Z,11.80
2023-02-08T10:09:14.887Z,11.50
2023-02-08T10:14:47.928Z,12.10
2023-02-08T10:20:03.667Z,11.90
2023-02-08T10:25:20.338Z,11.20
2023-02-08T10:30:53.484Z,12.00
2023-02-08T10:35:58.316Z,10.50
2023-02-08T10:41:06.665Z,11.40
2023-02-08T10:46:23.096Z,11.20
2023-02-08T10:51:27.487Z,11.90
2023-02-08T10:56:31.619Z,11.50
2023-02-08T11:01:36.046Z,11.30
2023-02-08T11:06:41.890Z,12.10
2023-02-08T11:11:47.175Z,11.30
2023-02-08T11:16:56.115Z,11.30
2023-02-08T11:22:02.124Z,11.70
2023-02-08T11:27:39.404Z,10.60
2023-02-08T11:32:48.952Z,10.80
2023-02-08T11:37:52.885Z,10.80
2023-02-08T11:42:57.789Z,11.20
2023-02-08T11:48:04.787Z,11.60
2023-02-08T11:53:36.917Z,10.90
2023-02-08T11:58:41.151Z,10.80
2023-02-08T12:03:48.417Z,10.70
2023-02-08T12:09:11.010Z,11.20
2023-02-08T12:14:38.690Z,11.70
2023-02-08T12:20:09.023Z,10.80
2023-02-08T12:25:38.730Z,10.10
2023-02-08T12:30:49.760Z,10.90
2023-02-08T12:36:27.654Z,11.20
2023-02-08T12:41:41.886Z,11.30
2023-02-08T12:47:18.754Z,10.80
2023-02-08T12:52:39.482Z,10.80
2023-02-08T12:57:47.498Z,10.90
2023-02-08T13:02:58.057Z,10.70
2023-02-08T13:08:39.777Z,10.60
2023-02-08T13:13:45.862Z,11.40
2023-02-08T13:18:54.385Z,11.10
2023-02-08T13:23:59.469Z,11.20
2023-02-08T13:29:04.202Z,11.30
2023-02-08T13:34:29.913Z,10.60
2023-02-08T13:39:36.616Z,11.00
2023-02-08T13:44:41.169Z,11.30
2023-02-08T13:49:51.032Z,11.30
2023-02-08T13:55:36.506Z,11.40
2023-02-08T14:00:56.831Z,11.50
2023-02-08T14:06:25.692Z,11.70
2023-02-08T14:11:39.979Z,11.60
2023-02-08T14:16:46.408Z,11.90
2023-02-08T14:22:08.803Z,10.80
2023-02-08T14:27:32.889Z,11.40
2023-02-08T14:32:40.507Z,11.40
2023-02-08T14:37:45.475Z,12.40
2023-02-08T14:43:00.957Z,11.70
2023-02-08T14:48:23.634Z,12.40
2023-02-08T14:53:55.636Z,11.40
2023-02-08T15:04:09.222Z,10.90
2023-02-08T15:09:24.479Z,11.70
2023-02-08T15:14:31.183Z,12.20
2023-02-08T15:19:39.043Z,11.60
2023-02-08T15:24:54.576Z,11.30
2023-02-08T15:29:59.245Z,11.20
2023-02-08T15:35:05.206Z,11.80
2023-02-08T15:40:27.974Z,11.70
2023-02-08T15:45:32.137Z,12.10
2023-02-08T15:50:36.843Z,12.00
2023-02-08T15:55:51.628Z,11.50
2023-02-08T16:01:01.349Z,11.20
2023-02-08T16:06:13.044Z,11.90
2023-02-08T16:11:34.718Z,11.00
2023-02-08T16:16:44.113Z,12.10
2023-02-08T16:21:50.590Z,12.00
2023-02-08T16:27:05.448Z,12.30
2023-02-08T16:32:29.278Z,13.10
2023-02-08T16:37:35.433Z,12.00
2023-02-08T16:42:44.552Z,12.30
2023-02-08T16:47:58.407Z,13.60
2023-02-08T16:53:05.056Z,12.90
2023-02-08T16:58:16.136Z,13.00
2023-02-08T17:03:20.302Z,13.70
2023-02-08T17:08:24.683Z,12.40
2023-02-08T17:13:29.250Z,13.20
2023-02-08T17:18:36.410Z,13.70
2023-02-08T17:23:41.074Z,13.10
2023-02-08T17:28:50.503Z,13.40
2023-02-08T17:33:57.118Z,13.70
2023-02-08T17:39:03.170Z,14.00
2023-02-08T17:44:08.353Z,13.80
2023-02-08T17:49:13.436Z,14.00
2023-02-08T17:54:19.202Z,14.30
2023-02-08T17:59:27.669Z,16.20
2023-02-08T18:04:33.892Z,16.10
2023-02-08T18:09:39.974Z,15.40
2023-02-08T18:14:45.174Z,16.10
2023-02-08T18:19:54.802Z,16.60
2023-02-08T18:24:59.355Z,15.30
2023-02-08T18:30:06.007Z,16.20
2023-02-08T18:35:11.821Z,16.80
2023-02-08T18:40:19.287Z,15.90
2023-02-08T18:45:24.355Z,15.80
2023-02-08T18:50:31.429Z,16.90
2023-02-08T18:55:37.575Z,16.80
2023-02-08T19:00:43.757Z,16.00
2023-02-08T19:05:53.270Z,17.40
2023-02-08T19:11:05.263Z,17.00
2023-02-08T19:16:16.419Z,18.00
2023-02-08T19:21:22.356Z,18.60
2023-02-08T19:26:32.741Z,18.60
2023-02-08T19:31:39.954Z,19.50
2023-02-08T19:36:52.466Z,19.10
2023-02-08T19:41:59.681Z,22.30
2023-02-08T19:47:06.435Z,23.30
2023-02-08T19:52:15.190Z,22.00
2023-02-08T19:57:25.631Z,21.00
2023-02-08T20:02:32.223Z,22.40
2023-02-08T20:07:39.073Z,21.30
2023-02-08T20:12:47.760Z,23.70
2023-02-08T20:17:56.033Z,24.10
2023-02-08T20:23:22.571Z,24.80
2023-02-08T20:28:30.369Z,26.20
2023-02-08T20:33:37.132Z,25.10
2023-02-08T20:38:42.720Z,27.80
2023-02-08T20:43:49.102Z,26.40
2023-02-08T20:48:58.313Z,26.40
2023-02-08T20:54:05.383Z,26.70
2023-02-08T20:59:16.577Z,25.50
2023-02-08T21:04:24.678Z,26.40
2023-02-08T21:09:30.026Z,24.00
2023-02-08T21:14:35.285Z,27.00
2023-02-08T21:19:40.056Z,23.80
2023-02-08T21:24:44.685Z,24.90
2023-02-08T21:29:55.122Z,23.80
2023-02-08T21:34:59.141Z,22.20
2023-02-08T21:40:04.351Z,23.90
2023-02-08T21:45:10.222Z,23.20
2023-02-08T21:50:33.185Z,21.70
2023-02-08T21:55:37.337Z,23.70
2023-02-08T22:00:41.447Z,22.80
2023-02-08T22:06:06.628Z,23.00
2023-02-08T22:11:10.705Z,22.90
2023-02-08T22:16:15.909Z,22.50
2023-02-08T22:21:21.442Z,23.60
2023-02-08T22:26:25.664Z,23.90
2023-02-08T22:31:29.748Z,23.10
2023-02-08T22:36:34.147Z,22.30
2023-02-08T22:41:38.380Z,23.30
2023-02-08T22:46:42.284Z,22.50
2023-02-08T22:51:46.462Z,22.50
2023-02-08T22:56:51.299Z,23.10
2023-02-08T23:01:55.136Z,23.00
2023-02-08T23:07:00.181Z,22.50
2023-02-08T23:12:04.095Z,22.00
2023-02-08T23:17:08.515Z,21.60
2023-02-08T23:22:12.587Z,22.20
2023-02-08T23:27:16.404Z,23.30
2023-02-08T23:32:20.344Z,21.90
2023-02-08T23:37:24.373Z,22.70
2023-02-08T23:42:28.359Z,23.50
2023-02-08T23:47:32.755Z,23.90
2023-02-08T23:52:37.391Z,22.80
2023-02-08T23:57:41.438Z,24.40
